Time;durP1;ratioP1;P1;durP2;ratioP2;P2;SDS_P1;SDS_P2;PMS_P1;PMS_P2;Temp;Humidity;BMP_temperature;BMP_pressure;BME280_temperature;BME280_humidity;BME280_pressure;Samples;Min_cycle;Max_cycle;Signal;HPM_P1;HPM_P2
2021/03/07 00:01:16;;;;;;;58.08;33.08;;;;;;;;;;4398720;32;20168;-82
2021/03/07 00:03:45;;;;;;;49.08;32.63;;;;;;;;;;4398742;32;20101;-80
2021/03/07 00:06:13;;;;;;;33.55;17.37;;;;;;;;;;4383796;32;20068;-80
2021/03/07 00:08:41;;;;;;;26.42;7.87;;;;;;;;;;4400327;32;20243;-80
2021/03/07 00:11:20;;;;;;;30.33;10.20;;;;;;;;;;4402668;32;20097;-79
2021/03/07 00:13:51;;;;;;;29.60;6.80;;;;;;;;;;4404519;32;20046;-79
2021/03/07 00:16:22;;;;;;;31.12;9.65;;;;;;;;;;4412357;32;20136;-82
2021/03/07 00:18:51;;;;;;;35.00;8.32;;;;;;;;;;4411805;32;20130;-80
2021/03/07 00:21:19;;;;;;;32.40;9.70;;;;;;;;;;4402654;32;20451;-81
2021/03/07 00:23:47;;;;;;;39.58;10.45;;;;;;;;;;4396465;32;20121;-80
2021/03/07 00:26:15;;;;;;;38.90;10.15;;;;;;;;;;4404150;32;20404;-81
2021/03/07 00:28:43;;;;;;;33.15;9.27;;;;;;;;;;4402542;32;20155;-80
2021/03/07 00:31:11;;;;;;;24.48;6.37;;;;;;;;;;4405934;32;20535;-83
2021/03/07 00:33:41;;;;;;;26.42;10.98;;;;;;;;;;4402475;32;20074;-80
2021/03/07 00:36:09;;;;;;;29.35;14.82;;;;;;;;;;4414011;32;20120;-81
2021/03/07 00:38:37;;;;;;;31.83;13.02;;;;;;;;;;4404158;32;20058;-80
2021/03/07 00:41:06;;;;;;;32.58;11.20;;;;;;;;;;4398135;32;20169;-79
2021/03/07 00:43:34;;;;;;;30.73;11.52;;;;;;;;;;4394424;32;20086;-79
2021/03/07 00:46:02;;;;;;;32.08;10.18;;;;;;;;;;4398633;32;20231;-82
2021/03/07 00:48:30;;;;;;;32.83;10.30;;;;;;;;;;4392212;32;20097;-82
2021/03/07 00:50:59;;;;;;;35.78;12.70;;;;;;;;;;4397585;32;20597;-81
2021/03/07 00:53:27;;;;;;;40.20;12.55;;;;;;;;;;4400780;32;20088;-81
2021/03/07 00:55:55;;;;;;;45.55;23.85;;;;;;;;;;4404821;32;20058;-80
2021/03/07 00:58:23;;;;;;;35.00;14.15;;;;;;;;;;4396427;32;20607;-80
2021/03/07 01:00:51;;;;;;;38.17;10.73;;;;;;;;;;4396388;32;20154;-81
2021/03/07 01:03:20;;;;;;;25.42;9.13;;;;;;;;;;4398738;32;20665;-80
2021/03/07 01:05:48;;;;;;;35.63;19.87;;;;;;;;;;4397165;32;20796;-80
2021/03/07 01:08:16;;;;;;;50.25;34.47;;;;;;;;;;4403866;32;20486;-80
2021/03/07 01:10:45;;;;;;;51.50;28.52;;;;;;;;;;4400417;32;20109;-79
2021/03/07 01:13:14;;;;;;;45.65;23.52;;;;;;;;;;4403584;32;20945;-79
2021/03/07 01:15:43;;;;;;;36.78;10.70;;;;;;;;;;4400507;32;20093;-82
2021/03/07 01:18:12;;;;;;;34.90;8.93;;;;;;;;;;4398333;32;20161;-82
2021/03/07 01:20:41;;;;;;;34.03;8.65;;;;;;;;;;4405132;32;20090;-80
2021/03/07 01:23:10;;;;;;;37.35;10.07;;;;;;;;;;4400561;32;20276;-79
2021/03/07 01:25:38;;;;;;;36.63;9.43;;;;;;;;;;4411901;32;20448;-79
2021/03/07 01:28:06;;;;;;;34.60;8.93;;;;;;;;;;4402015;32;21395;-79
2021/03/07 01:30:36;;;;;;;34.40;9.88;;;;;;;;;;4404456;32;20069;-79
2021/03/07 01:33:05;;;;;;;37.38;10.18;;;;;;;;;;4402974;32;20076;-81
2021/03/07 01:35:34;;;;;;;33.47;9.77;;;;;;;;;;4404593;32;20461;-79
2021/03/07 01:38:05;;;;;;;67.45;38.58;;;;;;;;;;4412523;32;20481;-79
2021/03/07 01:40:36;;;;;;;64.35;39.92;;;;;;;;;;4404404;32;20115;-79
2021/03/07 01:43:04;;;;;;;65.05;39.20;;;;;;;;;;4415288;32;20071;-79
2021/03/07 01:45:33;;;;;;;58.03;39.10;;;;;;;;;;4413491;32;20385;-80
2021/03/07 01:48:04;;;;;;;48.83;37.00;;;;;;;;;;4415882;32;20107;-79
2021/03/07 01:50:38;;;;;;;56.10;38.05;;;;;;;;;;4404997;32;20065;-80
2021/03/07 01:53:06;;;;;;;58.13;38.03;;;;;;;;;;4410941;32;20062;-79
2021/03/07 01:55:36;;;;;;;61.83;39.60;;;;;;;;;;4404834;32;20456;-80
2021/03/07 01:58:07;;;;;;;54.65;38.15;;;;;;;;;;4409742;32;20056;-80
2021/03/07 02:00:36;;;;;;;45.60;22.95;;;;;;;;;;4409917;32;20104;-78
2021/03/07 02:03:05;;;;;;;43.42;10.82;;;;;;;;;;4393024;32;20109;-80
2021/03/07 02:05:33;;;;;;;32.88;11.80;;;;;;;;;;4422182;32;20447;-79
2021/03/07 02:08:02;;;;;;;37.33;10.32;;;;;;;;;;4398810;32;20082;-81
2021/03/07 02:10:43;;;;;;;33.80;8.85;;;;;;;;;;4406341;32;20077;-79
2021/03/07 02:13:12;;;;;;;26.50;8.00;;;;;;;;;;4404551;32;20089;-81
2021/03/07 02:15:43;;;;;;;28.83;7.65;;;;;;;;;;4410497;32;20070;-81
2021/03/07 02:18:12;;;;;;;49.80;27.20;;;;;;;;;;4408704;32;20130;-79
2021/03/07 02:20:44;;;;;;;44.80;22.25;;;;;;;;;;4403598;32;20062;-79
2021/03/07 02:23:21;;;;;;;29.40;7.68;;;;;;;;;;4406724;32;20103;-81
2021/03/07 02:25:50;;;;;;;25.08;7.45;;;;;;;;;;4405714;32;20137;-80
2021/03/07 02:28:20;;;;;;;38.10;9.88;;;;;;;;;;4401511;32;20059;-79
2021/03/07 02:30:48;;;;;;;39.20;9.23;;;;;;;;;;4404529;32;20615;-80
2021/03/07 02:33:22;;;;;;;28.58;8.10;;;;;;;;;;4405292;32;20722;-79
2021/03/07 02:35:59;;;;;;;30.58;6.75;;;;;;;;;;4408607;32;20087;-79
2021/03/07 02:38:30;;;;;;;35.83;9.63;;;;;;;;;;4411026;32;20101;-79
2021/03/07 02:40:59;;;;;;;30.70;8.15;;;;;;;;;;4410931;32;20094;-82
2021/03/07 02:43:28;;;;;;;31.98;8.98;;;;;;;;;;4406160;32;20555;-80
2021/03/07 02:45:58;;;;;;;33.42;9.55;;;;;;;;;;4405170;32;20114;-81
2021/03/07 02:48:27;;;;;;;40.58;10.82;;;;;;;;;;4403703;32;20174;-81
2021/03/07 02:50:59;;;;;;;37.10;9.82;;;;;;;;;;4399749;32;20097;-82
2021/03/07 02:53:29;;;;;;;32.70;9.18;;;;;;;;;;4407332;32;20050;-82
2021/03/07 02:56:03;;;;;;;34.08;9.20;;;;;;;;;;4411910;32;20104;-81
2021/03/07 02:58:32;;;;;;;34.35;9.50;;;;;;;;;;4423595;32;20050;-80
2021/03/07 03:01:02;;;;;;;34.78;8.88;;;;;;;;;;4391223;32;20093;-80
2021/03/07 03:03:35;;;;;;;37.70;9.48;;;;;;;;;;4394857;32;20101;-81
2021/03/07 03:06:04;;;;;;;30.15;8.50;;;;;;;;;;4403750;32;20094;-83
2021/03/07 03:08:32;;;;;;;36.10;8.77;;;;;;;;;;4391889;32;20109;-80
2021/03/07 03:11:03;;;;;;;35.78;9.13;;;;;;;;;;4420250;27;20494;-95
2021/03/07 03:13:39;;;;;;;33.15;9.40;;;;;;;;;;4375835;32;20089;-95
2021/03/07 03:16:09;;;;;;;28.20;8.90;;;;;;;;;;4382869;32;20040;-96
2021/03/07 03:18:42;;;;;;;41.40;9.77;;;;;;;;;;4381453;32;20086;-96
2021/03/07 03:21:13;;;;;;;32.92;8.93;;;;;;;;;;4375831;32;20034;-96
2021/03/07 03:23:53;;;;;;;34.13;9.82;;;;;;;;;;4376135;32;20423;-96
2021/03/07 03:26:24;;;;;;;32.45;8.48;;;;;;;;;;4377876;32;20059;-96
2021/03/07 03:29:05;;;;;;;35.10;9.23;;;;;;;;;;4375771;32;20093;-96
2021/03/07 03:31:43;;;;;;;31.35;8.80;;;;;;;;;;4376813;32;20066;-95
2021/03/07 03:34:20;;;;;;;48.28;9.82;;;;;;;;;;4376230;32;20145;-96
2021/03/07 03:36:59;;;;;;;24.95;8.63;;;;;;;;;;4380104;32;20047;-96
2021/03/07 03:40:13;;;;;;;36.75;17.73;;;;;;;;;;4395295;32;20493;-96
2021/03/07 03:43:02;;;;;;;31.70;9.23;;;;;;;;;;4381320;32;20065;-95
2021/03/07 03:45:45;;;;;;;40.17;17.27;;;;;;;;;;4379867;32;20109;-95
2021/03/07 03:48:29;;;;;;;43.80;16.70;;;;;;;;;;4387810;32;20080;-96
2021/03/07 03:51:10;;;;;;;38.08;17.55;;;;;;;;;;4380042;32;20055;-96
2021/03/07 03:53:59;;;;;;;47.08;17.48;;;;;;;;;;4379742;32;20065;-96
2021/03/07 03:56:38;;;;;;;43.28;18.50;;;;;;;;;;4373753;32;20056;-96
2021/03/07 03:59:19;;;;;;;39.80;18.15;;;;;;;;;;4366105;32;20092;-96
2021/03/07 04:01:53;;;;;;;31.15;12.98;;;;;;;;;;4378877;32;20709;-96
2021/03/07 04:04:27;;;;;;;65.55;40.40;;;;;;;;;;4390185;32;20046;-94
2021/03/07 04:06:58;;;;;;;60.05;36.97;;;;;;;;;;4396487;32;20054;-96
2021/03/07 04:09:37;;;;;;;47.65;26.98;;;;;;;;;;4392648;32;20086;-94
2021/03/07 04:12:17;;;;;;;64.72;38.95;;;;;;;;;;4388032;32;20076;-95
2021/03/07 04:14:53;;;;;;;34.50;8.45;;;;;;;;;;4396421;32;20058;-96
2021/03/07 04:17:35;;;;;;;34.92;9.27;;;;;;;;;;4392905;32;20055;-95
2021/03/07 04:20:21;;;;;;;38.10;10.45;;;;;;;;;;4396115;32;20109;-96
2021/03/07 04:22:58;;;;;;;38.00;20.88;;;;;;;;;;4392832;32;20143;-96
2021/03/07 04:25:33;;;;;;;53.33;44.22;;;;;;;;;;4395665;32;20058;-95
2021/03/07 04:28:15;;;;;;;72.75;56.67;;;;;;;;;;4398656;32;20107;-96
2021/03/07 04:30:50;;;;;;;51.72;28.25;;;;;;;;;;4380030;32;20050;-95
2021/03/07 04:33:31;;;;;;;57.50;42.55;;;;;;;;;;4391428;32;20069;-96
2021/03/07 04:36:11;;;;;;;58.33;42.88;;;;;;;;;;4397247;32;20050;-95
2021/03/07 04:38:49;;;;;;;55.08;39.92;;;;;;;;;;4392108;32;20047;-95
2021/03/07 04:41:18;;;;;;;61.88;48.30;;;;;;;;;;4389201;32;20090;-95
2021/03/07 04:43:56;;;;;;;57.00;25.55;;;;;;;;;;4386461;32;20061;-95
2021/03/07 04:46:28;;;;;;;40.05;11.75;;;;;;;;;;4389348;32;20132;-95
2021/03/07 04:49:12;;;;;;;51.20;19.70;;;;;;;;;;4389627;32;20054;-95
2021/03/07 04:51:57;;;;;;;43.30;10.30;;;;;;;;;;4407144;32;22363;-96
2021/03/07 04:54:40;;;;;;;42.53;9.38;;;;;;;;;;4395963;32;20048;-96
2021/03/07 04:57:11;;;;;;;39.08;8.38;;;;;;;;;;4395491;32;20086;-96
2021/03/07 04:59:50;;;;;;;50.78;10.05;;;;;;;;;;4394665;32;20051;-95
2021/03/07 05:02:46;;;;;;;42.35;8.93;;;;;;;;;;4397192;32;20054;-96
2021/03/07 05:06:11;;;;;;;41.95;10.13;;;;;;;;;;4408298;32;20054;-96
2021/03/07 05:09:03;;;;;;;38.45;8.88;;;;;;;;;;4402123;32;20080;-96
2021/03/07 05:11:32;;;;;;;40.63;10.05;;;;;;;;;;4389603;32;20054;-96
2021/03/07 05:14:03;;;;;;;38.10;9.88;;;;;;;;;;4388824;32;20087;-96
2021/03/07 05:16:39;;;;;;;39.03;9.20;;;;;;;;;;4390681;32;20505;-95
2021/03/07 05:19:29;;;;;;;47.53;10.68;;;;;;;;;;4380725;32;20508;-96
2021/03/07 05:22:39;;;;;;;43.00;9.95;;;;;;;;;;4360337;32;20098;-95
2021/03/07 05:25:31;;;;;;;55.80;16.33;;;;;;;;;;4388442;32;20114;-96
2021/03/07 05:28:24;;;;;;;51.83;9.98;;;;;;;;;;4391459;32;20055;-95
2021/03/07 05:31:03;;;;;;;65.90;12.68;;;;;;;;;;4394504;32;20047;-96
2021/03/07 05:33:37;;;;;;;90.80;42.30;;;;;;;;;;4378034;32;20094;-96
2021/03/07 05:36:20;;;;;;;50.15;11.77;;;;;;;;;;4389221;32;20128;-95
2021/03/07 05:38:56;;;;;;;55.70;14.75;;;;;;;;;;4400040;32;20062;-96
2021/03/07 05:41:31;;;;;;;57.33;11.83;;;;;;;;;;4401578;32;20120;-96
2021/03/07 05:44:06;;;;;;;63.15;15.38;;;;;;;;;;4394722;32;20172;-95
2021/03/07 05:46:46;;;;;;;38.33;8.90;;;;;;;;;;4395994;32;20116;-94
2021/03/07 05:49:46;;;;;;;35.97;10.75;;;;;;;;;;4391334;32;20039;-96
2021/03/07 05:52:52;;;;;;;50.55;22.25;;;;;;;;;;4400183;32;20063;-95
2021/03/07 05:55:25;;;;;;;54.22;12.48;;;;;;;;;;4387816;32;20077;-95
2021/03/07 05:58:02;;;;;;;56.45;14.45;;;;;;;;;;4387120;32;20080;-96
2021/03/07 06:00:57;;;;;;;39.88;12.30;;;;;;;;;;4392975;32;20050;-96
2021/03/07 06:03:32;;;;;;;43.58;15.40;;;;;;;;;;4383234;32;20059;-96
2021/03/07 06:06:06;;;;;;;48.53;13.40;;;;;;;;;;4391735;32;20047;-95
2021/03/07 06:08:49;;;;;;;55.50;11.25;;;;;;;;;;4392606;32;20046;-96
2021/03/07 06:11:31;;;;;;;47.78;10.63;;;;;;;;;;4407027;32;20500;-95
2021/03/07 06:14:00;;;;;;;57.30;19.17;;;;;;;;;;4391869;32;20115;-96
2021/03/07 06:16:34;;;;;;;46.60;15.65;;;;;;;;;;4390584;32;20054;-96
2021/03/07 06:19:18;;;;;;;77.75;55.30;;;;;;;;;;4391469;32;20071;-96
2021/03/07 06:21:55;;;;;;;32.40;7.97;;;;;;;;;;4390440;32;20173;-96
2021/03/07 06:24:36;;;;;;;44.42;33.75;;;;;;;;;;4380817;32;20097;-95
2021/03/07 06:27:16;;;;;;;53.42;25.15;;;;;;;;;;4390042;32;20125;-95
2021/03/07 06:30:12;;;;;;;44.25;12.65;;;;;;;;;;4389238;32;20068;-96
2021/03/07 06:32:54;;;;;;;49.78;9.68;;;;;;;;;;4391014;32;20051;-96
2021/03/07 06:35:37;;;;;;;42.47;9.57;;;;;;;;;;4390832;32;20155;-96
2021/03/07 06:39:01;;;;;;;25.37;7.53;;;;;;;;;;4389388;32;20081;-96
2021/03/07 06:42:00;;;;;;;41.17;7.90;;;;;;;;;;4388258;32;20035;-94
2021/03/07 06:44:41;;;;;;;40.28;8.70;;;;;;;;;;4400595;32;20116;-96
2021/03/07 06:47:13;;;;;;;50.15;13.88;;;;;;;;;;4385309;32;20463;-96
2021/03/07 06:49:49;;;;;;;42.25;9.50;;;;;;;;;;4392878;32;20156;-94
2021/03/07 06:52:27;;;;;;;47.62;9.82;;;;;;;;;;4407529;32;20398;-96
2021/03/07 06:55:12;;;;;;;51.87;9.07;;;;;;;;;;4391298;32;20106;-96
2021/03/07 06:57:54;;;;;;;65.05;10.65;;;;;;;;;;4393305;32;20067;-96
2021/03/07 07:01:08;;;;;;;31.10;7.45;;;;;;;;;;4390529;32;20505;-95
2021/03/07 07:03:59;;;;;;;68.05;37.80;;;;;;;;;;4407907;32;20117;-95
2021/03/07 07:06:35;;;;;;;43.85;15.88;;;;;;;;;;4390895;32;20074;-95
2021/03/07 07:09:05;;;;;;;44.30;9.90;;;;;;;;;;4387877;32;20035;-95
2021/03/07 07:11:49;;;;;;;55.55;11.48;;;;;;;;;;4387702;32;20090;-96
2021/03/07 07:14:28;;;;;;;44.60;9.73;;;;;;;;;;4403209;32;20076;-95
2021/03/07 07:16:58;;;;;;;45.15;9.25;;;;;;;;;;4396039;32;20054;-96
2021/03/07 07:19:29;;;;;;;32.65;7.53;;;;;;;;;;4408167;32;20122;-96
2021/03/07 07:21:58;;;;;;;39.33;8.05;;;;;;;;;;4403698;32;20609;-94
2021/03/07 07:24:34;;;;;;;56.40;31.45;;;;;;;;;;4391842;32;20077;-95
2021/03/07 07:27:06;;;;;;;34.40;6.80;;;;;;;;;;4403812;32;20054;-96
2021/03/07 07:29:43;;;;;;;39.10;7.97;;;;;;;;;;4394869;32;20057;-96
2021/03/07 07:32:20;;;;;;;44.60;8.90;;;;;;;;;;4393716;32;20415;-95
2021/03/07 07:34:59;;;;;;;36.90;7.90;;;;;;;;;;4391196;32;20074;-95
2021/03/07 07:37:49;;;;;;;49.97;8.35;;;;;;;;;;4393534;32;20500;-95
2021/03/07 07:40:36;;;;;;;44.10;9.48;;;;;;;;;;4401183;32;20089;-94
2021/03/07 07:43:17;;;;;;;34.03;6.75;;;;;;;;;;4406944;32;20095;-96
2021/03/07 07:46:24;;;;;;;51.42;9.73;;;;;;;;;;4409621;32;20088;-96
2021/03/07 07:49:00;;;;;;;32.95;7.12;;;;;;;;;;4396641;32;20046;-96
2021/03/07 07:51:47;;;;;;;33.33;7.20;;;;;;;;;;4394200;32;20047;-96
2021/03/07 07:55:16;;;;;;;43.53;8.15;;;;;;;;;;4383538;32;20107;-96
2021/03/07 07:58:05;;;;;;;;;;;;;;;;;;;;;
2021/03/07 08:01:05;;;;;;;50.67;10.88;;;;;;;;;;4404010;32;20099;-96
2021/03/07 08:03:59;;;;;;;25.65;5.95;;;;;;;;;;4392773;32;20590;-95
2021/03/07 08:06:47;;;;;;;31.42;6.45;;;;;;;;;;4398119;32;20077;-96
2021/03/07 08:09:50;;;;;;;38.92;10.55;;;;;;;;;;4407913;32;20042;-96
2021/03/07 08:12:56;;;;;;;27.80;6.05;;;;;;;;;;4404019;32;20092;-95
2021/03/07 08:16:06;;;;;;;37.47;6.72;;;;;;;;;;4394829;32;20054;-96
2021/03/07 08:18:46;;;;;;;44.45;7.55;;;;;;;;;;4394648;32;20070;-96
2021/03/07 08:21:18;;;;;;;24.70;5.72;;;;;;;;;;4394209;32;20132;-96
2021/03/07 08:24:08;;;;;;;37.45;8.02;;;;;;;;;;4390750;32;20055;-95
2021/03/07 08:26:44;;;;;;;36.83;7.00;;;;;;;;;;4406947;32;20090;-96
2021/03/07 08:29:34;;;;;;;37.22;6.68;;;;;;;;;;4390318;32;20054;-96
2021/03/07 08:32:25;;;;;;;34.13;5.82;;;;;;;;;;4396762;32;20111;-96
2021/03/07 08:34:58;;;;;;;35.63;7.55;;;;;;;;;;4386999;32;20497;-95
2021/03/07 08:37:36;;;;;;;34.30;7.53;;;;;;;;;;4406248;32;20084;-96
2021/03/07 08:40:31;;;;;;;40.78;6.93;;;;;;;;;;4402728;32;20104;-96
2021/03/07 08:43:23;;;;;;;67.32;49.40;;;;;;;;;;4397166;32;20077;-95
2021/03/07 08:46:13;;;;;;;37.03;14.30;;;;;;;;;;4392395;32;20077;-96
2021/03/07 08:48:51;;;;;;;42.10;6.82;;;;;;;;;;4389341;32;20085;-96
2021/03/07 08:51:45;;;;;;;29.10;6.40;;;;;;;;;;4388288;32;20070;-96
2021/03/07 08:54:20;;;;;;;38.35;7.25;;;;;;;;;;4403887;32;20132;-96
2021/03/07 08:56:49;;;;;;;66.40;39.95;;;;;;;;;;4388137;32;20071;-95
2021/03/07 08:59:33;;;;;;;28.65;6.12;;;;;;;;;;4387414;32;20062;-94
2021/03/07 09:02:06;;;;;;;33.00;6.85;;;;;;;;;;4377044;32;20059;-96
2021/03/07 09:04:41;;;;;;;31.85;6.53;;;;;;;;;;4382350;32;20054;-96
2021/03/07 09:07:12;;;;;;;30.92;6.97;;;;;;;;;;4401054;32;21448;-96
2021/03/07 09:10:07;;;;;;;31.02;6.30;;;;;;;;;;4387051;32;20059;-96
2021/03/07 09:13:07;;;;;;;48.75;19.62;;;;;;;;;;4378865;32;20125;-96
2021/03/07 09:16:00;;;;;;;37.53;15.40;;;;;;;;;;4382730;32;20059;-94
2021/03/07 09:18:43;;;;;;;37.50;11.48;;;;;;;;;;4374225;32;20128;-96
2021/03/07 09:21:22;;;;;;;28.25;10.35;;;;;;;;;;4379927;32;20080;-96
2021/03/07 09:23:52;;;;;;;33.20;13.13;;;;;;;;;;4373012;32;20047;-96
2021/03/07 09:26:23;;;;;;;35.22;17.83;;;;;;;;;;4369384;32;20110;-95
2021/03/07 09:28:53;;;;;;;23.08;6.32;;;;;;;;;;4373543;32;20036;-96
2021/03/07 09:31:33;;;;;;;25.05;5.68;;;;;;;;;;4378157;32;20062;-96
2021/03/07 09:34:04;;;;;;;31.25;5.68;;;;;;;;;;4368890;32;20095;-95
2021/03/07 09:36:42;;;;;;;35.88;13.90;;;;;;;;;;4370519;32;20133;-94
2021/03/07 09:39:13;;;;;;;23.95;6.30;;;;;;;;;;4374424;32;20091;-96
2021/03/07 09:41:54;;;;;;;28.73;7.25;;;;;;;;;;4369331;32;20090;-95
2021/03/07 09:44:23;;;;;;;23.70;11.15;;;;;;;;;;4371668;32;20649;-96
2021/03/07 09:47:06;;;;;;;21.33;6.45;;;;;;;;;;4372075;32;20122;-96
2021/03/07 09:49:52;;;;;;;26.50;6.85;;;;;;;;;;4370990;32;20064;-96
2021/03/07 09:52:39;;;;;;;24.70;6.65;;;;;;;;;;4379928;32;20121;-96
2021/03/07 09:55:29;;;;;;;23.67;6.37;;;;;;;;;;4369132;32;20051;-95
2021/03/07 09:58:00;;;;;;;22.00;5.40;;;;;;;;;;4364468;32;20226;-95
2021/03/07 10:00:35;;;;;;;22.90;5.30;;;;;;;;;;4369713;32;20071;-96
2021/03/07 10:03:34;;;;;;;22.73;5.35;;;;;;;;;;4384677;32;20114;-96
2021/03/07 10:06:21;;;;;;;23.10;5.43;;;;;;;;;;4386451;32;20043;-96
2021/03/07 10:09:32;;;;;;;24.87;6.97;;;;;;;;;;4321793;33;20119;-95
2021/03/07 10:13:28;;;;;;;27.77;6.18;;;;;;;;;;4346853;33;20020;-96
2021/03/07 10:16:52;;;;;;;26.50;5.87;;;;;;;;;;4346206;33;20111;-96
2021/03/07 10:19:51;;;;;;;21.92;5.30;;;;;;;;;;4332464;33;20621;-95
2021/03/07 10:22:40;;;;;;;22.75;6.43;;;;;;;;;;4342050;33;20511;-96
2021/03/07 10:25:24;;;;;;;20.73;6.85;;;;;;;;;;4327416;33;20134;-96
2021/03/07 10:27:52;;;;;;;;;;;;;;;;;;4331769;33;20055;-96
2021/03/07 10:30:49;;;;;;;;;;;;;;;;;;;;;
2021/03/07 10:33:19;;;;;;;26.08;5.80;;;;;;;;;;4339835;32;20051;-96
2021/03/07 10:36:03;;;;;;;27.08;6.60;;;;;;;;;;4333812;33;20059;-96
2021/03/07 10:38:49;;;;;;;17.35;4.90;;;;;;;;;;4345816;32;20063;-96
2021/03/07 10:41:20;;;;;;;21.65;5.05;;;;;;;;;;4328126;33;20560;-96
2021/03/07 10:43:56;;;;;;;24.77;5.07;;;;;;;;;;4336081;32;20527;-96
2021/03/07 10:46:30;;;;;;;19.10;4.35;;;;;;;;;;4335428;33;20086;-96
2021/03/07 10:49:22;;;;;;;26.05;5.75;;;;;;;;;;4344999;33;20756;-96
2021/03/07 10:51:55;;;;;;;;;;;;;;;;;;4325875;33;20085;-96
2021/03/07 10:54:54;;;;;;;22.00;5.18;;;;;;;;;;4335394;33;20009;-96
2021/03/07 10:57:46;;;;;;;19.95;5.43;;;;;;;;;;4333726;33;20103;-96
2021/03/07 11:00:15;;;;;;;27.48;8.25;;;;;;;;;;4341924;33;20063;-96
2021/03/07 11:02:49;;;;;;;22.67;9.80;;;;;;;;;;4330847;33;20077;-95
2021/03/07 11:05:40;;;;;;;22.13;5.28;;;;;;;;;;4328273;32;20157;-95
2021/03/07 11:08:14;;;;;;;28.60;5.65;;;;;;;;;;4321688;33;20083;-95
2021/03/07 11:10:43;;;;;;;19.95;4.57;;;;;;;;;;4331958;32;20229;-96
2021/03/07 11:13:17;;;;;;;24.95;5.03;;;;;;;;;;4324997;33;20059;-96
2021/03/07 11:15:51;;;;;;;25.80;6.05;;;;;;;;;;4332575;33;20154;-96
2021/03/07 11:18:28;;;;;;;27.65;5.85;;;;;;;;;;4323583;33;20062;-96
2021/03/07 11:21:02;;;;;;;26.00;5.43;;;;;;;;;;4330177;33;20068;-96
2021/03/07 11:23:33;;;;;;;27.42;5.55;;;;;;;;;;4327990;33;20452;-96
2021/03/07 11:26:12;;;;;;;23.73;5.65;;;;;;;;;;4332122;33;20186;-95
2021/03/07 11:29:13;;;;;;;19.17;4.78;;;;;;;;;;4346849;33;20079;-96
2021/03/07 11:32:18;;;;;;;19.58;5.03;;;;;;;;;;4347129;33;20098;-96
2021/03/07 11:35:38;;;;;;;25.42;4.93;;;;;;;;;;4343549;33;20704;-96
2021/03/07 11:38:43;;;;;;;20.58;4.78;;;;;;;;;;4307707;33;20083;-79
2021/03/07 11:41:12;;;;;;;22.15;4.90;;;;;;;;;;4296844;33;20115;-81
2021/03/07 11:43:40;;;;;;;16.42;4.82;;;;;;;;;;4310432;33;20103;-82
2021/03/07 11:46:08;;;;;;;15.57;4.05;;;;;;;;;;4307961;33;20057;-82
2021/03/07 11:48:36;;;;;;;16.55;4.50;;;;;;;;;;4322286;33;20430;-80
2021/03/07 11:51:07;;;;;;;16.52;4.62;;;;;;;;;;4307294;33;20120;-81
2021/03/07 11:53:35;;;;;;;16.62;4.12;;;;;;;;;;4315757;33;20491;-78
2021/03/07 11:56:03;;;;;;;21.10;4.70;;;;;;;;;;4315942;33;20079;-80
2021/03/07 11:58:32;;;;;;;20.12;4.25;;;;;;;;;;4317931;33;20170;-81
2021/03/07 12:01:00;;;;;;;17.12;4.57;;;;;;;;;;4315506;33;20399;-81
2021/03/07 12:03:29;;;;;;;15.95;4.15;;;;;;;;;;4327528;33;20095;-80
2021/03/07 12:05:57;;;;;;;21.15;4.85;;;;;;;;;;4310255;33;20074;-82
2021/03/07 12:08:24;;;;;;;22.90;4.60;;;;;;;;;;4318882;33;20076;-80
2021/03/07 12:10:53;;;;;;;23.90;4.40;;;;;;;;;;4312127;33;20143;-79
2021/03/07 12:13:21;;;;;;;20.42;4.57;;;;;;;;;;4307637;33;20207;-79
2021/03/07 12:15:49;;;;;;;23.50;5.22;;;;;;;;;;4313662;33;20119;-83
2021/03/07 12:18:18;;;;;;;17.95;3.95;;;;;;;;;;4311909;33;20167;-81
2021/03/07 12:20:46;;;;;;;22.87;5.07;;;;;;;;;;4307971;33;20048;-81
2021/03/07 12:23:14;;;;;;;19.62;4.75;;;;;;;;;;4307489;33;20116;-79
2021/03/07 12:25:43;;;;;;;22.92;5.15;;;;;;;;;;4303140;33;20623;-80
2021/03/07 12:28:11;;;;;;;20.55;4.75;;;;;;;;;;4299885;33;20187;-81
2021/03/07 12:30:39;;;;;;;25.33;5.95;;;;;;;;;;4304770;33;20139;-80
2021/03/07 12:33:07;;;;;;;24.92;6.03;;;;;;;;;;4290933;33;20136;-79
2021/03/07 12:35:35;;;;;;;16.85;4.85;;;;;;;;;;4305898;33;20179;-79
2021/03/07 12:38:03;;;;;;;23.15;5.10;;;;;;;;;;4301241;33;20187;-83
2021/03/07 12:40:32;;;;;;;20.67;4.65;;;;;;;;;;4299382;33;20179;-79
2021/03/07 12:43:00;;;;;;;16.90;4.72;;;;;;;;;;4276640;33;20120;-80
2021/03/07 12:45:28;;;;;;;16.23;4.53;;;;;;;;;;4310962;33;20214;-82
2021/03/07 12:47:56;;;;;;;23.33;5.70;;;;;;;;;;4312206;33;20059;-81
2021/03/07 12:50:29;;;;;;;21.05;4.78;;;;;;;;;;4292149;33;20060;-79
2021/03/07 12:52:58;;;;;;;17.62;4.18;;;;;;;;;;4286543;33;20092;-79
2021/03/07 12:55:26;;;;;;;21.27;4.07;;;;;;;;;;4288550;33;20211;-79
2021/03/07 12:57:54;;;;;;;19.65;5.12;;;;;;;;;;4289682;33;20057;-80
2021/03/07 13:00:22;;;;;;;21.50;5.70;;;;;;;;;;4303100;33;20159;-79
2021/03/07 13:02:50;;;;;;;27.90;4.65;;;;;;;;;;4288727;33;20138;-81
2021/03/07 13:05:18;;;;;;;22.62;4.15;;;;;;;;;;4288089;33;20108;-80
2021/03/07 13:07:47;;;;;;;18.02;4.65;;;;;;;;;;4296085;33;21198;-81
2021/03/07 13:10:18;;;;;;;18.25;4.65;;;;;;;;;;4296719;33;20718;-80
2021/03/07 13:12:46;;;;;;;21.37;4.65;;;;;;;;;;4300053;33;20379;-78
2021/03/07 13:15:15;;;;;;;13.70;3.62;;;;;;;;;;4304355;33;20104;-78
2021/03/07 13:17:43;;;;;;;20.52;4.03;;;;;;;;;;4303098;33;20168;-80
2021/03/07 13:20:14;;;;;;;14.65;4.15;;;;;;;;;;4290894;33;20136;-82
2021/03/07 13:22:42;;;;;;;15.63;4.18;;;;;;;;;;4290589;33;20111;-81
2021/03/07 13:25:16;;;;;;;;;;;;;;;;;;4290934;33;20071;-79
2021/03/07 13:27:44;;;;;;;15.70;3.65;;;;;;;;;;4298480;33;19966;-81
2021/03/07 13:30:12;;;;;;;19.85;4.75;;;;;;;;;;4289990;33;20148;-79
2021/03/07 13:32:40;;;;;;;17.90;6.00;;;;;;;;;;4299976;33;20065;-81
2021/03/07 13:35:09;;;;;;;18.90;5.72;;;;;;;;;;4295761;33;20185;-79
2021/03/07 13:37:37;;;;;;;14.30;3.95;;;;;;;;;;4303417;33;20141;-80
2021/03/07 13:40:06;;;;;;;20.25;5.10;;;;;;;;;;4319786;33;20172;-79
2021/03/07 13:42:35;;;;;;;23.55;5.10;;;;;;;;;;4316796;33;20151;-82
2021/03/07 13:45:04;;;;;;;15.70;4.10;;;;;;;;;;4319761;33;20421;-80
2021/03/07 13:47:32;;;;;;;17.58;4.95;;;;;;;;;;4321383;33;20524;-79
2021/03/07 13:50:00;;;;;;;16.83;4.18;;;;;;;;;;4321601;33;20084;-80
2021/03/07 13:52:28;;;;;;;22.00;4.60;;;;;;;;;;4324280;33;20455;-80
2021/03/07 13:54:56;;;;;;;17.45;4.07;;;;;;;;;;4322797;33;20217;-81
2021/03/07 13:57:24;;;;;;;17.77;4.50;;;;;;;;;;4321384;33;20379;-80
2021/03/07 13:59:52;;;;;;;15.55;3.95;;;;;;;;;;4311638;33;20091;-80
2021/03/07 14:02:20;;;;;;;20.52;4.12;;;;;;;;;;4318567;33;20123;-79
2021/03/07 14:04:48;;;;;;;28.55;4.70;;;;;;;;;;4317973;33;20109;-79
2021/03/07 14:07:16;;;;;;;20.75;4.03;;;;;;;;;;4323723;33;20056;-81
2021/03/07 14:09:46;;;;;;;14.70;3.40;;;;;;;;;;4336578;33;20458;-79
2021/03/07 14:12:15;;;;;;;18.52;4.18;;;;;;;;;;4334568;33;20117;-79
2021/03/07 14:14:43;;;;;;;21.98;4.00;;;;;;;;;;4322735;33;20126;-83
2021/03/07 14:17:11;;;;;;;16.12;3.33;;;;;;;;;;4310149;33;20091;-78
2021/03/07 14:19:39;;;;;;;15.00;3.05;;;;;;;;;;4332975;33;20066;-80
2021/03/07 14:22:08;;;;;;;13.27;3.50;;;;;;;;;;4323194;33;20133;-80
2021/03/07 14:24:36;;;;;;;13.60;3.30;;;;;;;;;;4321789;33;20217;-80
2021/03/07 14:27:04;;;;;;;13.73;2.92;;;;;;;;;;4328155;33;20496;-80
2021/03/07 14:29:32;;;;;;;12.50;2.95;;;;;;;;;;4327017;33;20095;-79
2021/03/07 14:32:00;;;;;;;17.12;3.47;;;;;;;;;;4320596;33;20196;-78
2021/03/07 14:34:28;;;;;;;15.65;3.67;;;;;;;;;;4324719;33;20539;-80
2021/03/07 14:36:56;;;;;;;19.08;3.53;;;;;;;;;;4319519;33;20099;-82
2021/03/07 14:39:24;;;;;;;20.17;3.40;;;;;;;;;;4328078;33;20110;-79
2021/03/07 14:41:52;;;;;;;98.35;7.70;;;;;;;;;;4328753;33;20100;-82
2021/03/07 14:44:20;;;;;;;214.00;203.30;;;;;;;;;;4323961;33;20059;-79
2021/03/07 14:46:48;;;;;;;22.00;3.15;;;;;;;;;;4324097;33;20052;-80
2021/03/07 14:49:17;;;;;;;15.40;3.50;;;;;;;;;;4328690;33;20087;-80
2021/03/07 14:51:57;;;;;;;16.67;3.35;;;;;;;;;;4324428;33;20734;-79
2021/03/07 14:54:25;;;;;;;13.55;2.95;;;;;;;;;;4323365;33;20087;-81
2021/03/07 14:56:53;;;;;;;20.05;3.28;;;;;;;;;;4320286;33;20142;-80
2021/03/07 14:59:21;;;;;;;18.85;3.78;;;;;;;;;;4320116;33;20154;-81
2021/03/07 15:01:49;;;;;;;14.45;3.30;;;;;;;;;;4326583;33;20539;-79
2021/03/07 15:04:18;;;;;;;18.80;4.15;;;;;;;;;;4326042;33;20118;-78
2021/03/07 15:06:46;;;;;;;19.35;4.15;;;;;;;;;;4324283;33;20161;-80
2021/03/07 15:09:14;;;;;;;17.98;3.72;;;;;;;;;;4335835;33;20075;-79
2021/03/07 15:11:42;;;;;;;16.10;3.92;;;;;;;;;;4322540;33;20100;-79
2021/03/07 15:14:11;;;;;;;18.00;4.20;;;;;;;;;;4328672;33;20367;-80
2021/03/07 15:16:39;;;;;;;15.82;3.67;;;;;;;;;;4325677;33;20406;-81
2021/03/07 15:19:08;;;;;;;18.27;3.35;;;;;;;;;;4339218;33;20098;-80
2021/03/07 15:21:36;;;;;;;15.32;3.62;;;;;;;;;;4309199;33;20100;-80
2021/03/07 15:24:04;;;;;;;13.80;3.15;;;;;;;;;;4305115;33;20457;-78